Time;durP1;ratioP1;P1;durP2;ratioP2;P2;SDS_P1;SDS_P2;PMS_P1;PMS_P2;Temp;Humidity;BMP_temperature;BMP_pressure;BME280_temperature;BME280_humidity;BME280_pressure;Samples;Min_cycle;Max_cycle;Signal;HPM_P1;HPM_P2
2023/01/29 00:01:59;;;;;;;2.13;1.93;;;5.80;99.90;;;;;;4890271;29;20293;-83
2023/01/29 00:04:26;;;;;;;3.60;2.10;;;5.80;99.90;;;;;;4889337;29;20218;-82
2023/01/29 00:06:54;;;;;;;3.33;2.50;;;5.80;99.90;;;;;;4889621;29;20231;-83
2023/01/29 00:09:22;;;;;;;2.70;2.50;;;5.90;99.90;;;;;;4896313;29;20645;-82
2023/01/29 00:11:49;;;;;;;2.50;2.30;;;5.90;99.90;;;;;;4908779;29;20206;-84
2023/01/29 00:14:16;;;;;;;2.70;2.33;;;5.90;99.90;;;;;;4928456;29;20201;-81
2023/01/29 00:16:42;;;;;;;3.17;2.00;;;6.00;99.90;;;;;;4929307;29;20212;-83
2023/01/29 00:19:10;;;;;;;3.30;2.90;;;6.00;99.90;;;;;;4927402;29;20216;-81
2023/01/29 00:21:36;;;;;;;4.77;2.77;;;6.00;99.90;;;;;;4909644;29;20214;-83
2023/01/29 00:24:05;;;;;;;4.00;2.67;;;5.90;99.90;;;;;;4909555;29;20545;-83
2023/01/29 00:26:32;;;;;;;2.33;2.13;;;5.90;99.90;;;;;;4911520;29;20234;-81
2023/01/29 00:29:01;;;;;;;4.03;2.70;;;5.90;99.90;;;;;;4913570;29;20210;-83
2023/01/29 00:31:28;;;;;;;4.33;2.60;;;5.90;99.90;;;;;;4913033;29;20617;-84
2023/01/29 00:33:55;;;;;;;3.80;2.43;;;5.90;99.90;;;;;;4913789;29;20224;-81
2023/01/29 00:36:22;;;;;;;4.40;3.07;;;5.90;99.90;;;;;;4912922;29;20566;-83
2023/01/29 00:38:57;;;;;;;2.80;2.60;;;5.90;99.90;;;;;;4913296;29;20221;-83
2023/01/29 00:46:56;;;;;;;3.37;2.33;;;5.90;99.90;;;;;;4913628;29;20316;-82
2023/01/29 00:49:23;;;;;;;2.77;2.17;;;6.00;99.90;;;;;;4912690;29;20206;-81
2023/01/29 00:54:30;;;;;;;3.93;2.00;;;6.20;99.90;;;;;;4912187;29;20209;-81
2023/01/29 00:56:59;;;;;;;3.57;2.07;;;6.20;95.70;;;;;;4915579;29;20201;-81
2023/01/29 00:59:26;;;;;;;4.97;2.03;;;6.20;99.90;;;;;;4931687;29;20237;-83
2023/01/29 01:04:38;;;;;;;3.73;1.73;;;6.10;99.90;;;;;;4931103;29;20200;-82
2023/01/29 01:07:05;;;;;;;3.10;2.13;;;6.10;99.90;;;;;;4930411;29;20230;-82
2023/01/29 01:12:22;;;;;;;4.27;2.30;;;6.10;99.90;;;;;;4914555;29;20210;-84
2023/01/29 01:14:50;;;;;;;3.33;2.47;;;6.10;99.90;;;;;;4923917;29;20313;-82
2023/01/29 01:17:17;;;;;;;4.60;2.40;;;6.10;99.90;;;;;;4912096;29;20301;-82
2023/01/29 01:19:44;;;;;;;3.80;2.50;;;6.20;99.90;;;;;;4911444;29;20231;-81
2023/01/29 01:22:11;;;;;;;3.53;2.13;;;6.10;99.90;;;;;;4910300;29;20202;-81
2023/01/29 01:24:38;;;;;;;3.20;2.10;;;6.20;99.90;;;;;;4909850;29;20215;-82
2023/01/29 01:27:05;;;;;;;4.57;2.10;;;6.20;99.90;;;;;;4909755;29;20226;-83
2023/01/29 01:29:34;;;;;;;2.47;1.80;;;6.20;99.90;;;;;;4910129;29;20242;-83
2023/01/29 01:32:01;;;;;;;3.00;2.10;;;6.10;99.90;;;;;;4911536;29;20242;-82
2023/01/29 01:34:28;;;;;;;1.97;1.60;;;6.30;92.70;;;;;;4922850;29;20216;-81
2023/01/29 01:36:55;;;;;;;2.67;2.13;;;6.30;66.60;;;;;;4929675;29;20208;-83
2023/01/29 01:39:23;;;;;;;2.43;1.97;;;6.30;72.50;;;;;;4929619;29;20639;-81
2023/01/29 01:41:50;;;;;;;3.53;1.80;;;6.30;81.70;;;;;;4930273;29;20685;-82
2023/01/29 01:44:53;;;;;;;4.20;2.57;;;6.20;96.30;;;;;;4921692;29;20217;-82
2023/01/29 01:47:26;;;;;;;5.57;2.53;;;6.20;99.90;;;;;;4910255;29;20905;-82
2023/01/29 01:49:55;;;;;;;4.53;2.30;;;6.20;99.90;;;;;;4911650;29;20202;-83
2023/01/29 01:52:22;;;;;;;7.07;3.90;;;6.10;99.90;;;;;;4911453;29;20210;-83
2023/01/29 01:54:51;;;;;;;8.53;3.73;;;6.20;99.90;;;;;;4911372;29;20278;-82
2023/01/29 01:57:23;;;;;;;2.57;2.27;;;6.20;99.90;;;;;;4911049;29;20607;-83
2023/01/29 01:59:56;;;;;;;4.13;2.70;;;6.20;99.90;;;;;;4911088;29;20202;-83
2023/01/29 02:10:42;;;;;;;6.03;2.90;;;6.10;99.90;;;;;;4909214;29;20650;-80
2023/01/29 02:13:11;;;;;;;4.83;3.03;;;6.10;99.90;;;;;;4908799;29;20209;-81
2023/01/29 02:15:45;;;;;;;5.40;2.70;;;6.20;99.90;;;;;;4909159;29;20205;-81
2023/01/29 02:18:13;;;;;;;4.43;2.43;;;6.10;99.90;;;;;;4908874;29;20206;-81
2023/01/29 02:20:44;;;;;;;3.07;2.73;;;6.20;99.90;;;;;;4909231;29;20234;-80
2023/01/29 02:23:46;;;;;;;4.97;3.13;;;6.10;99.90;;;;;;4909488;29;20237;-81
2023/01/29 02:26:28;;;;;;;4.73;2.60;;;6.10;99.90;;;;;;4909095;29;20222;-81
2023/01/29 02:29:21;;;;;;;4.83;3.00;;;6.10;99.90;;;;;;4909740;29;20286;-81
2023/01/29 02:31:56;;;;;;;3.77;3.20;;;6.20;99.90;;;;;;4908573;29;20249;-81
2023/01/29 02:37:14;;;;;;;6.03;3.33;;;6.10;99.90;;;;;;4897861;29;20210;-80
2023/01/29 02:39:51;;;;;;;7.33;2.83;;;6.10;99.90;;;;;;4908915;29;20317;-81
2023/01/29 02:42:27;;;;;;;5.40;3.37;;;6.10;99.90;;;;;;4908986;29;20843;-80
2023/01/29 02:45:00;;;;;;;4.97;3.60;;;6.10;99.90;;;;;;4908976;29;20205;-82
2023/01/29 02:47:33;;;;;;;5.90;3.23;;;6.10;99.90;;;;;;4907776;29;20234;-81
2023/01/29 02:50:07;;;;;;;3.83;3.47;;;6.10;99.90;;;;;;4908646;29;20282;-81
2023/01/29 02:52:43;;;;;;;4.57;3.20;;;6.20;99.90;;;;;;4908190;29;20198;-81
2023/01/29 02:55:15;;;;;;;5.60;3.30;;;6.20;99.90;;;;;;4907877;29;20603;-81
2023/01/29 02:57:46;;;;;;;5.97;3.30;;;6.20;99.90;;;;;;4908044;29;20210;-82
2023/01/29 03:00:18;;;;;;;4.20;3.37;;;6.20;99.90;;;;;;4923566;29;20580;-82
2023/01/29 03:02:49;;;;;;;4.50;2.90;;;6.20;99.90;;;;;;4925430;29;20202;-82
2023/01/29 03:05:21;;;;;;;3.73;2.97;;;6.20;99.90;;;;;;4917107;29;20233;-82
2023/01/29 03:08:00;;;;;;;5.33;3.57;;;6.30;99.90;;;;;;4906910;29;20261;-82
2023/01/29 03:10:32;;;;;;;6.67;3.57;;;6.30;99.90;;;;;;4907990;29;20226;-80
2023/01/29 03:13:03;;;;;;;4.53;2.83;;;6.30;99.90;;;;;;4909048;29;20692;-82
2023/01/29 03:15:41;;;;;;;4.07;2.80;;;6.30;99.90;;;;;;4908141;29;20211;-80
2023/01/29 03:18:12;;;;;;;4.40;2.83;;;6.30;99.90;;;;;;4909400;29;20202;-81
2023/01/29 03:20:47;;;;;;;5.87;3.00;;;6.30;99.90;;;;;;4908674;29;20202;-80
2023/01/29 03:23:22;;;;;;;3.73;2.90;;;6.30;99.90;;;;;;4907283;29;20340;-82
2023/01/29 03:34:15;;;;;;;4.97;3.00;;;6.30;99.90;;;;;;4927076;29;20201;-81
2023/01/29 03:36:49;;;;;;;5.83;3.23;;;6.30;99.90;;;;;;4922378;29;20202;-80
2023/01/29 03:39:17;;;;;;;5.93;3.60;;;6.20;99.90;;;;;;4908279;29;20215;-82
2023/01/29 03:41:49;;;;;;;5.70;3.60;;;6.20;99.90;;;;;;4907423;29;20226;-81
2023/01/29 03:44:21;;;;;;;5.63;3.73;;;6.20;99.90;;;;;;4907472;29;20555;-81
2023/01/29 03:46:56;;;;;;;5.47;4.03;;;6.20;99.90;;;;;;4908760;29;20226;-81
2023/01/29 03:49:32;;;;;;;6.77;3.83;;;6.20;99.90;;;;;;4907657;29;20221;-80
2023/01/29 03:52:12;;;;;;;5.30;3.70;;;6.20;99.90;;;;;;4906995;29;20913;-82
2023/01/29 03:54:49;;;;;;;4.00;3.13;;;6.20;99.90;;;;;;4907551;29;20301;-81
2023/01/29 03:57:27;;;;;;;7.80;4.60;;;6.20;99.90;;;;;;4907101;29;20487;-80
2023/01/29 04:00:03;;;;;;;5.90;3.60;;;6.20;99.90;;;;;;4906791;29;20951;-83
2023/01/29 04:02:38;;;;;;;5.30;4.50;;;6.20;99.90;;;;;;4907388;29;20210;-81
2023/01/29 04:05:10;;;;;;;5.87;4.53;;;6.20;99.90;;;;;;4907760;29;20204;-81
2023/01/29 04:07:37;;;;;;;6.00;4.33;;;6.20;99.90;;;;;;4907728;29;20230;-80
2023/01/29 04:10:09;;;;;;;6.30;4.07;;;6.20;99.90;;;;;;4908351;29;20213;-82
2023/01/29 04:12:41;;;;;;;5.77;3.77;;;6.30;99.90;;;;;;4907075;29;20207;-81
2023/01/29 04:15:14;;;;;;;4.93;4.10;;;6.20;99.90;;;;;;4907923;29;20202;-82
2023/01/29 04:17:46;;;;;;;4.77;3.97;;;6.20;99.90;;;;;;4907033;29;20483;-81
2023/01/29 04:20:14;;;;;;;11.07;5.17;;;6.20;99.90;;;;;;4907391;29;20211;-83
2023/01/29 04:22:45;;;;;;;8.20;4.70;;;6.30;99.90;;;;;;4907384;29;20226;-82
2023/01/29 04:25:15;;;;;;;5.43;4.40;;;6.30;99.90;;;;;;4907619;29;20827;-83
2023/01/29 04:27:49;;;;;;;7.13;4.30;;;6.30;99.90;;;;;;4907082;29;20230;-81
2023/01/29 04:30:26;;;;;;;9.93;4.40;;;6.40;99.90;;;;;;4908130;29;20234;-80
2023/01/29 04:33:07;;;;;;;5.73;4.83;;;6.40;99.90;;;;;;4907326;29;20236;-81
2023/01/29 04:35:48;;;;;;;8.83;4.43;;;6.40;99.90;;;;;;4907497;29;20209;-81
2023/01/29 04:38:27;;;;;;;7.80;4.17;;;6.40;99.90;;;;;;4907509;29;20198;-80
2023/01/29 04:41:02;;;;;;;5.27;4.23;;;6.50;99.90;;;;;;4907270;29;20230;-81
2023/01/29 04:43:38;;;;;;;7.37;4.83;;;6.50;99.90;;;;;;4906930;29;20670;-83
2023/01/29 04:46:14;;;;;;;8.77;5.50;;;6.40;99.90;;;;;;4907426;29;20209;-82
2023/01/29 04:48:54;;;;;;;9.40;6.70;;;6.40;99.90;;;;;;4905940;29;20210;-82
2023/01/29 04:51:30;;;;;;;11.13;7.10;;;6.50;99.90;;;;;;4907480;29;20224;-84
2023/01/29 04:54:04;;;;;;;9.90;6.10;;;6.50;99.90;;;;;;4907314;29;20294;-81
2023/01/29 04:56:41;;;;;;;7.97;6.80;;;6.60;99.90;;;;;;4906705;29;20409;-82
2023/01/29 04:59:12;;;;;;;9.97;6.83;;;6.50;99.90;;;;;;4906765;29;20258;-81
2023/01/29 05:01:39;;;;;;;10.53;6.63;;;6.50;99.90;;;;;;4907104;29;20319;-83
2023/01/29 05:04:13;;;;;;;8.13;6.40;;;6.50;99.90;;;;;;4907384;29;20387;-81
2023/01/29 05:06:41;;;;;;;8.50;6.47;;;6.50;99.90;;;;;;4906612;29;20609;-83
2023/01/29 05:09:09;;;;;;;9.57;7.13;;;6.50;99.90;;;;;;4906613;29;20207;-81
2023/01/29 05:11:37;;;;;;;9.30;7.07;;;6.50;99.90;;;;;;4907862;29;20649;-79
2023/01/29 05:14:07;;;;;;;8.60;5.73;;;6.50;99.90;;;;;;4910176;29;20206;-83
2023/01/29 05:16:41;;;;;;;7.70;5.33;;;6.50;99.90;;;;;;4910025;29;20234;-81
2023/01/29 05:19:11;;;;;;;7.33;5.60;;;6.50;99.90;;;;;;4910608;29;20190;-81
2023/01/29 05:21:40;;;;;;;7.73;6.23;;;6.50;99.90;;;;;;4909441;29;20273;-81
2023/01/29 05:24:12;;;;;;;9.77;5.73;;;6.50;99.90;;;;;;4910682;29;20344;-83
2023/01/29 05:29:23;;;;;;;10.03;6.83;;;6.50;99.90;;;;;;4909468;29;20201;-82
2023/01/29 05:31:50;;;;;;;11.43;7.10;;;6.50;99.90;;;;;;4909913;29;20714;-83
2023/01/29 05:34:19;;;;;;;12.83;7.30;;;6.60;99.90;;;;;;4910544;29;20199;-81
2023/01/29 05:36:46;;;;;;;8.40;6.17;;;6.60;99.90;;;;;;4910005;29;20244;-82
2023/01/29 05:39:13;;;;;;;12.23;6.80;;;6.60;99.90;;;;;;4910635;29;20855;-80
2023/01/29 05:41:39;;;;;;;9.13;6.93;;;6.60;99.90;;;;;;4910410;29;20215;-81
2023/01/29 05:44:06;;;;;;;9.77;7.10;;;6.60;99.90;;;;;;4910394;29;20746;-82
2023/01/29 05:46:33;;;;;;;11.10;7.10;;;6.60;99.90;;;;;;4910541;29;20628;-82
2023/01/29 05:49:00;;;;;;;10.50;7.13;;;6.60;99.90;;;;;;4911265;29;20210;-82
2023/01/29 05:51:28;;;;;;;12.10;8.53;;;6.60;99.90;;;;;;4928981;29;20308;-81
2023/01/29 05:53:55;;;;;;;12.67;9.50;;;6.60;99.90;;;;;;4929783;29;20206;-82
2023/01/29 05:56:22;;;;;;;12.90;9.53;;;6.70;99.90;;;;;;4910919;29;20218;-82
2023/01/29 05:58:49;;;;;;;13.90;10.43;;;6.70;99.90;;;;;;4910202;29;20337;-82
2023/01/29 06:01:18;;;;;;;13.50;10.73;;;6.70;99.90;;;;;;4910477;29;20229;-82
2023/01/29 06:03:46;;;;;;;14.00;10.43;;;6.70;99.90;;;;;;4910543;29;20203;-83
2023/01/29 06:06:14;;;;;;;17.80;11.53;;;6.60;99.90;;;;;;4910520;29;20214;-81
2023/01/29 06:08:42;;;;;;;13.77;11.00;;;6.70;99.90;;;;;;4910452;29;20237;-83
2023/01/29 06:11:11;;;;;;;17.87;10.77;;;6.70;99.90;;;;;;4925653;29;20224;-82
2023/01/29 06:13:38;;;;;;;13.27;10.70;;;6.60;99.90;;;;;;4911927;29;20917;-82
2023/01/29 06:16:06;;;;;;;14.10;10.17;;;6.50;99.90;;;;;;4908276;29;20338;-83
2023/01/29 06:18:33;;;;;;;15.60;10.93;;;6.50;99.90;;;;;;4909220;29;20506;-82
2023/01/29 06:21:02;;;;;;;14.00;10.53;;;6.50;99.90;;;;;;4910070;29;20325;-83
2023/01/29 06:23:29;;;;;;;14.90;10.40;;;6.40;99.90;;;;;;4909648;29;20250;-82
2023/01/29 06:26:01;;;;;;;17.20;9.93;;;6.50;99.90;;;;;;4909902;29;20286;-81
2023/01/29 06:28:28;;;;;;;15.47;10.60;;;6.40;99.90;;;;;;4909539;29;20238;-82
2023/01/29 06:30:58;;;;;;;14.30;10.33;;;6.40;99.90;;;;;;4909579;29;20394;-83
2023/01/29 06:33:25;;;;;;;18.60;12.03;;;6.40;99.90;;;;;;4909593;29;20231;-82
2023/01/29 06:35:56;;;;;;;16.93;12.40;;;6.40;99.90;;;;;;4910669;29;20305;-82
2023/01/29 06:38:24;;;;;;;19.03;11.83;;;6.50;99.90;;;;;;4910955;29;20198;-83
2023/01/29 06:40:50;;;;;;;17.33;11.93;;;6.60;99.90;;;;;;4909934;29;20297;-84
2023/01/29 06:43:20;;;;;;;21.43;12.53;;;6.60;99.90;;;;;;4910014;29;20211;-82
2023/01/29 06:45:48;;;;;;;20.73;14.43;;;6.50;99.90;;;;;;4909371;29;20314;-82
2023/01/29 06:48:15;;;;;;;17.73;12.07;;;6.50;99.90;;;;;;4909518;29;20734;-82
2023/01/29 06:50:42;;;;;;;18.60;12.13;;;6.50;99.90;;;;;;4909263;29;20218;-83
2023/01/29 06:53:09;;;;;;;17.97;12.03;;;6.40;99.90;;;;;;4925015;29;20233;-83
2023/01/29 06:55:36;;;;;;;18.37;12.50;;;6.40;99.90;;;;;;4927792;29;20217;-82
2023/01/29 06:58:06;;;;;;;18.73;12.20;;;6.40;99.90;;;;;;4917204;29;20218;-83
2023/01/29 07:00:35;;;;;;;19.00;12.60;;;6.30;99.90;;;;;;4909434;29;20209;-83
2023/01/29 07:03:02;;;;;;;18.43;12.63;;;6.40;99.90;;;;;;4909866;29;20630;-85
2023/01/29 07:05:30;;;;;;;17.37;11.63;;;6.40;99.90;;;;;;4911598;29;20199;-83
2023/01/29 07:07:57;;;;;;;18.23;12.07;;;6.50;99.90;;;;;;4912441;29;20222;-81
2023/01/29 07:10:24;;;;;;;19.00;12.93;;;6.40;99.90;;;;;;4912750;29;20222;-82
2023/01/29 07:12:51;;;;;;;17.63;13.40;;;6.40;99.90;;;;;;4920794;29;20293;-81
2023/01/29 07:15:20;;;;;;;21.90;13.80;;;6.40;99.90;;;;;;4914649;29;20683;-83
2023/01/29 07:17:58;;;;;;;19.87;12.27;;;6.50;99.90;;;;;;4912968;29;20223;-82
2023/01/29 07:20:26;;;;;;;18.27;11.77;;;6.50;99.90;;;;;;4913500;29;20206;-83
2023/01/29 07:22:53;;;;;;;15.77;11.87;;;6.50;99.90;;;;;;4912718;29;20238;-82
2023/01/29 07:25:20;;;;;;;21.40;12.50;;;6.50;99.90;;;;;;4913198;29;20199;-82
2023/01/29 07:27:48;;;;;;;15.60;10.93;;;6.50;99.90;;;;;;4912921;29;20238;-82
2023/01/29 07:30:15;;;;;;;20.57;12.97;;;6.40;99.90;;;;;;4912719;29;20226;-83
2023/01/29 07:32:43;;;;;;;30.60;15.37;;;6.40;99.90;;;;;;4910780;29;20250;-81
2023/01/29 07:35:11;;;;;;;34.30;15.70;;;6.40;99.90;;;;;;4910486;29;20214;-82
2023/01/29 07:37:38;;;;;;;22.33;13.37;;;6.40;99.90;;;;;;4912207;29;20228;-84
2023/01/29 07:40:10;;;;;;;19.57;11.83;;;6.50;99.90;;;;;;4923550;29;20759;-84
2023/01/29 07:42:37;;;;;;;20.67;11.43;;;6.50;99.90;;;;;;4932763;29;20198;-85
2023/01/29 07:45:05;;;;;;;23.33;12.60;;;6.50;99.90;;;;;;4928564;29;20217;-83
2023/01/29 07:47:32;;;;;;;20.87;11.30;;;6.50;99.90;;;;;;4913578;29;20233;-85
2023/01/29 07:49:59;;;;;;;16.37;10.93;;;6.50;99.90;;;;;;4923560;29;20603;-82
2023/01/29 07:52:29;;;;;;;19.73;10.77;;;6.50;99.90;;;;;;4922642;29;20213;-86
2023/01/29 07:54:55;;;;;;;22.73;11.40;;;6.40;99.90;;;;;;4929587;29;20236;-84
2023/01/29 07:57:23;;;;;;;18.63;11.53;;;6.50;99.90;;;;;;4911920;29;20961;-83
2023/01/29 07:59:50;;;;;;;16.90;10.67;;;6.40;99.90;;;;;;4913207;29;20238;-84
2023/01/29 08:02:17;;;;;;;15.07;11.00;;;6.50;99.90;;;;;;4913601;29;20234;-84
2023/01/29 08:04:44;;;;;;;17.87;10.60;;;6.50;99.90;;;;;;4929904;29;20296;-86
2023/01/29 08:07:11;;;;;;;16.30;10.67;;;6.50;99.90;;;;;;4931367;29;20212;-85
2023/01/29 08:09:39;;;;;;;13.90;8.67;;;6.50;99.90;;;;;;4913300;29;20210;-84
2023/01/29 08:12:06;;;;;;;13.13;8.37;;;6.50;99.90;;;;;;4912375;29;20294;-85
2023/01/29 08:14:33;;;;;;;15.57;7.83;;;6.60;99.90;;;;;;4912882;29;20218;-86
2023/01/29 08:17:00;;;;;;;12.17;8.17;;;6.60;99.90;;;;;;4913473;29;20245;-84
2023/01/29 08:19:27;;;;;;;12.27;7.57;;;6.60;99.90;;;;;;4912845;29;20207;-86
2023/01/29 08:21:54;;;;;;;13.87;8.53;;;6.60;99.90;;;;;;4913153;29;20205;-84
2023/01/29 08:24:21;;;;;;;13.60;8.73;;;6.60;99.90;;;;;;4913432;29;20321;-85
2023/01/29 08:26:49;;;;;;;15.43;8.83;;;6.60;99.90;;;;;;4913169;29;20230;-84
2023/01/29 08:29:19;;;;;;;19.33;9.00;;;6.60;99.90;;;;;;4913706;29;20333;-85
2023/01/29 08:31:46;;;;;;;17.93;8.30;;;6.60;99.90;;;;;;4912776;29;20297;-83
2023/01/29 08:34:13;;;;;;;24.53;8.50;;;6.60;99.90;;;;;;4913261;29;20224;-84
2023/01/29 08:36:40;;;;;;;19.80;9.67;;;6.60;99.90;;;;;;4913016;29;21015;-83
2023/01/29 08:39:07;;;;;;;18.40;9.43;;;6.70;99.90;;;;;;4929586;29;20210;-86
2023/01/29 08:41:34;;;;;;;15.93;8.23;;;6.70;99.90;;;;;;4932336;29;20293;-85
2023/01/29 08:44:03;;;;;;;16.47;8.70;;;6.70;99.90;;;;;;4932190;29;20214;-84
2023/01/29 08:46:30;;;;;;;17.50;9.13;;;6.80;99.90;;;;;;4932744;29;20209;-84
2023/01/29 08:48:57;;;;;;;16.17;8.70;;;6.80;99.90;;;;;;4925879;29;20325;-86
2023/01/29 08:51:26;;;;;;;9.03;6.67;;;6.80;99.90;;;;;;4915886;29;20238;-86
2023/01/29 08:53:53;;;;;;;13.27;7.13;;;6.80;99.90;;;;;;4916056;29;20311;-84
2023/01/29 08:56:20;;;;;;;14.73;7.63;;;6.90;99.90;;;;;;4916656;29;20206;-86
2023/01/29 08:58:47;;;;;;;13.60;7.90;;;6.90;99.90;;;;;;4927099;29;20658;-86
2023/01/29 09:01:16;;;;;;;15.50;8.00;;;6.90;99.90;;;;;;4935722;29;20198;-86
2023/01/29 09:03:43;;;;;;;12.53;6.43;;;6.90;99.90;;;;;;4924845;29;20302;-84
2023/01/29 09:06:12;;;;;;;9.67;6.80;;;7.00;99.90;;;;;;4917420;29;20202;-85
2023/01/29 09:08:39;;;;;;;8.43;7.00;;;7.00;99.90;;;;;;4914769;29;20309;-83
2023/01/29 09:11:06;;;;;;;10.73;6.63;;;7.00;99.90;;;;;;4927185;29;20602;-84
2023/01/29 09:13:33;;;;;;;11.07;6.27;;;7.00;99.90;;;;;;4934122;29;20349;-84
2023/01/29 09:16:01;;;;;;;10.63;6.90;;;7.00;99.90;;;;;;4933622;29;20212;-83
2023/01/29 09:18:30;;;;;;;9.60;5.87;;;7.00;99.90;;;;;;4932955;29;20229;-86
2023/01/29 09:20:57;;;;;;;7.17;5.20;;;7.10;99.90;;;;;;4935668;28;20321;-86
2023/01/29 09:23:24;;;;;;;11.63;5.93;;;7.10;99.90;;;;;;4927608;29;20230;-85
2023/01/29 09:25:51;;;;;;;13.23;6.67;;;7.10;99.90;;;;;;4916442;29;20210;-85
2023/01/29 09:28:18;;;;;;;11.37;5.63;;;7.10;99.90;;;;;;4912503;29;20286;-85
2023/01/29 09:30:45;;;;;;;8.10;4.90;;;7.10;99.90;;;;;;4926931;29;20210;-86
2023/01/29 09:33:12;;;;;;;10.60;5.30;;;7.10;99.90;;;;;;4931553;29;20280;-85
2023/01/29 09:35:44;;;;;;;13.73;6.40;;;7.10;99.90;;;;;;4926822;29;20210;-82
2023/01/29 09:38:11;;;;;;;14.27;7.63;;;7.10;99.90;;;;;;4928554;29;20214;-84
2023/01/29 09:40:46;;;;;;;15.63;8.17;;;7.10;99.90;;;;;;4929916;29;20582;-84
2023/01/29 09:43:18;;;;;;;11.77;7.33;;;7.10;99.90;;;;;;4917974;29;20233;-83
2023/01/29 09:45:53;;;;;;;13.17;7.40;;;7.10;99.90;;;;;;4918946;29;20380;-83
2023/01/29 09:48:25;;;;;;;10.53;6.50;;;7.10;99.90;;;;;;4930096;28;20229;-84
2023/01/29 09:50:56;;;;;;;8.83;5.50;;;7.10;99.90;;;;;;4927547;29;20221;-84
2023/01/29 09:53:31;;;;;;;9.03;6.20;;;7.10;99.90;;;;;;4927413;29;20305;-84
2023/01/29 09:56:03;;;;;;;11.53;6.50;;;7.10;99.90;;;;;;4930808;29;20321;-83
2023/01/29 09:58:34;;;;;;;10.03;4.97;;;7.10;99.90;;;;;;4929046;28;20210;-84
2023/01/29 10:01:10;;;;;;;14.47;6.77;;;7.10;99.90;;;;;;4927093;29;20210;-82
2023/01/29 10:03:51;;;;;;;14.80;8.17;;;7.10;99.90;;;;;;4925303;29;20198;-83
2023/01/29 10:06:31;;;;;;;13.50;6.83;;;7.10;99.90;;;;;;4922853;29;20230;-82
2023/01/29 10:09:29;;;;;;;12.03;6.90;;;7.10;99.90;;;;;;4915666;29;20226;-84
2023/01/29 10:12:06;;;;;;;12.97;7.43;;;7.10;99.90;;;;;;4912555;29;20570;-84
2023/01/29 10:14:40;;;;;;;10.60;5.73;;;7.20;99.90;;;;;;4930954;29;20214;-85
2023/01/29 10:17:21;;;;;;;8.97;4.13;;;7.10;99.90;;;;;;4935239;29;20699;-84
2023/01/29 10:20:01;;;;;;;10.67;5.70;;;7.20;99.90;;;;;;4927170;29;20587;-84
2023/01/29 10:23:03;;;;;;;10.07;6.20;;;7.20;99.90;;;;;;4926630;29;20226;-81
2023/01/29 10:25:32;;;;;;;10.30;5.10;;;7.20;99.90;;;;;;4927477;29;20202;-84
2023/01/29 10:28:00;;;;;;;7.17;4.60;;;7.20;99.90;;;;;;4929091;29;20202;-85
2023/01/29 10:30:33;;;;;;;6.30;4.00;;;7.20;99.90;;;;;;4931969;29;20210;-84
2023/01/29 10:33:03;;;;;;;10.23;5.67;;;7.20;99.90;;;;;;4932835;29;20246;-83
2023/01/29 10:35:34;;;;;;;14.03;6.70;;;7.20;99.90;;;;;;4916895;29;20218;-84
2023/01/29 10:38:18;;;;;;;6.83;4.80;;;7.20;99.90;;;;;;4912636;29;20210;-82
2023/01/29 10:40:50;;;;;;;5.77;4.13;;;7.20;99.90;;;;;;4912509;29;20214;-85
2023/01/29 10:43:24;;;;;;;7.40;4.23;;;7.20;99.90;;;;;;4913453;29;20210;-83
2023/01/29 10:45:59;;;;;;;11.60;4.67;;;7.20;99.90;;;;;;4916710;29;20625;-84
2023/01/29 10:48:41;;;;;;;6.20;4.33;;;7.20;99.90;;;;;;4932984;29;20292;-84
2023/01/29 10:51:17;;;;;;;8.00;4.20;;;7.20;99.90;;;;;;4928674;29;20475;-82
2023/01/29 10:53:57;;;;;;;7.17;4.30;;;7.20;99.90;;;;;;4929395;29;20209;-82
2023/01/29 10:56:39;;;;;;;6.03;3.57;;;7.20;99.90;;;;;;4930612;29;20832;-81
2023/01/29 10:59:12;;;;;;;5.60;3.40;;;7.20;99.90;;;;;;4923983;29;20687;-84
2023/01/29 11:01:38;;;;;;;4.50;3.27;;;7.20;99.90;;;;;;4918986;29;20205;-82
2023/01/29 11:04:11;;;;;;;6.70;5.30;;;7.20;99.90;;;;;;4930088;29;20233;-81
2023/01/29 11:06:38;;;;;;;7.47;5.10;;;7.20;99.90;;;;;;4926345;29;20224;-83
2023/01/29 11:09:18;;;;;;;6.90;5.40;;;7.20;99.90;;;;;;4930033;29;20230;-81
2023/01/29 11:11:50;;;;;;;7.67;5.70;;;7.20;99.90;;;;;;4929825;29;20198;-83
2023/01/29 11:14:22;;;;;;;13.33;5.97;;;7.20;99.90;;;;;;4926445;29;20289;-81
2023/01/29 11:16:49;;;;;;;8.60;5.60;;;7.30;99.90;;;;;;4910908;29;20238;-82
2023/01/29 11:19:16;;;;;;;10.33;6.03;;;7.30;99.90;;;;;;4911282;29;20206;-81
2023/01/29 11:21:57;;;;;;;8.23;5.13;;;7.30;99.90;;;;;;4917659;29;20355;-82
2023/01/29 11:24:26;;;;;;;8.90;5.33;;;7.30;99.90;;;;;;4916306;29;20234;-81
2023/01/29 11:26:57;;;;;;;6.97;5.13;;;7.30;99.90;;;;;;4919233;29;21138;-81
2023/01/29 11:29:34;;;;;;;10.37;6.60;;;7.40;99.90;;;;;;4923009;29;20249;-83
2023/01/29 11:32:03;;;;;;;9.13;4.30;;;7.40;99.90;;;;;;4930452;29;20273;-83
2023/01/29 11:34:31;;;;;;;7.60;4.83;;;7.40;99.90;;;;;;4930141;29;20591;-83
2023/01/29 11:36:59;;;;;;;8.43;4.43;;;7.40;99.90;;;;;;4930542;29;20218;-82
2023/01/29 11:39:29;;;;;;;5.90;4.13;;;7.40;99.90;;;;;;4930946;29;20293;-83
2023/01/29 11:41:59;;;;;;;10.77;5.20;;;7.40;99.90;;;;;;4917432;29;20618;-83
2023/01/29 11:44:31;;;;;;;14.13;5.37;;;7.40;99.90;;;;;;4913214;29;20207;-84
2023/01/29 11:47:16;;;;;;;6.67;4.20;;;7.40;99.90;;;;;;4912521;29;20615;-82
2023/01/29 11:49:48;;;;;;;6.43;3.77;;;7.40;99.90;;;;;;4918455;29;20234;-84
2023/01/29 11:52:17;;;;;;;7.40;5.20;;;7.40;99.90;;;;;;4926118;29;20212;-81
2023/01/29 11:54:50;;;;;;;11.07;5.03;;;7.50;99.90;;;;;;4931523;29;20224;-82
2023/01/29 11:57:27;;;;;;;13.00;5.10;;;7.50;99.90;;;;;;4930004;29;20501;-83
2023/01/29 11:59:58;;;;;;;9.27;4.53;;;7.50;99.90;;;;;;4926409;29;20309;-83
2023/01/29 12:02:30;;;;;;;7.87;4.60;;;7.60;99.90;;;;;;4936167;29;20239;-84
2023/01/29 12:05:01;;;;;;;7.13;4.50;;;7.60;99.90;;;;;;4928673;29;20269;-83
2023/01/29 12:07:29;;;;;;;8.17;4.53;;;7.60;99.90;;;;;;4928968;29;20213;-85
2023/01/29 12:09:59;;;;;;;8.07;4.60;;;7.60;99.90;;;;;;4929880;29;20230;-84
2023/01/29 12:12:35;;;;;;;11.17;5.10;;;7.60;99.90;;;;;;4927442;29;20224;-85
2023/01/29 12:15:15;;;;;;;9.13;4.70;;;7.60;99.90;;;;;;4928698;28;20297;-85
2023/01/29 12:17:46;;;;;;;10.53;5.40;;;7.60;99.90;;;;;;4930139;29;20190;-84
2023/01/29 12:20:18;;;;;;;9.93;5.17;;;7.60;99.90;;;;;;4922905;29;20680;-85
2023/01/29 12:22:50;;;;;;;9.87;5.57;;;7.60;99.90;;;;;;4925593;29;20349;-83
2023/01/29 12:25:25;;;;;;;9.13;5.33;;;7.60;99.90;;;;;;4925947;29;20682;-83
2023/01/29 12:27:58;;;;;;;9.90;5.03;;;7.50;99.90;;;;;;4926663;28;20226;-85
2023/01/29 12:30:31;;;;;;;12.03;4.63;;;7.50;99.90;;;;;;4928014;29;20309;-83
2023/01/29 12:33:05;;;;;;;10.03;5.10;;;7.50;99.90;;;;;;4928899;29;20263;-82
2023/01/29 12:35:36;;;;;;;10.90;6.50;;;7.50;99.90;;;;;;4931986;29;20289;-85
2023/01/29 12:38:10;;;;;;;11.10;5.60;;;7.50;99.90;;;;;;4932299;29;20204;-86
2023/01/29 12:40:43;;;;;;;12.47;5.23;;;7.40;99.90;;;;;;4913747;29;20214;-85
2023/01/29 12:43:15;;;;;;;11.43;5.87;;;7.40;99.90;;;;;;4913967;29;20207;-85
2023/01/29 12:45:43;;;;;;;9.17;5.17;;;7.40;99.90;;;;;;4913084;29;20218;-86
2023/01/29 12:48:14;;;;;;;10.63;4.90;;;7.40;99.90;;;;;;4919324;29;20625;-86
2023/01/29 12:50:41;;;;;;;8.93;5.70;;;7.40;99.90;;;;;;4932226;29;20213;-86
2023/01/29 12:53:19;;;;;;;11.67;6.00;;;7.30;99.90;;;;;;4931841;29;20308;-86
2023/01/29 12:55:54;;;;;;;13.60;7.50;;;7.40;99.90;;;;;;4930866;29;20277;-87
2023/01/29 12:58:27;;;;;;;19.00;8.00;;;7.40;99.90;;;;;;4932331;29;20565;-86
2023/01/29 13:00:57;;;;;;;14.90;7.07;;;7.40;99.90;;;;;;4930343;29;20209;-88
2023/01/29 13:03:32;;;;;;;10.60;6.43;;;7.40;99.90;;;;;;4932174;29;20694;-87
2023/01/29 13:06:03;;;;;;;11.57;7.23;;;7.40;99.90;;;;;;4924290;29;20186;-86
2023/01/29 13:08:37;;;;;;;15.57;8.93;;;7.40;99.90;;;;;;4920556;29;20211;-86
2023/01/29 13:11:11;;;;;;;15.80;8.63;;;7.50;99.90;;;;;;4924204;29;20245;-87
2023/01/29 13:13:51;;;;;;;17.87;8.00;;;7.50;99.90;;;;;;4924761;29;20265;-84
2023/01/29 13:16:22;;;;;;;18.80;10.30;;;7.50;99.90;;;;;;4921453;29;20209;-85
2023/01/29 13:18:53;;;;;;;20.10;9.97;;;7.50;99.90;;;;;;4927729;29;20194;-85
2023/01/29 13:21:26;;;;;;;25.73;9.90;;;7.50;99.90;;;;;;4909100;29;20207;-84
2023/01/29 13:23:56;;;;;;;17.43;9.37;;;7.60;99.90;;;;;;4909217;29;20699;-83
2023/01/29 13:26:26;;;;;;;20.10;9.23;;;7.60;99.90;;;;;;4912290;29;20203;-86
2023/01/29 13:28:54;;;;;;;16.57;8.77;;;7.50;99.90;;;;;;4913302;29;20206;-86
2023/01/29 13:31:30;;;;;;;10.40;7.53;;;7.50;99.90;;;;;;4912299;29;20217;-83
2023/01/29 13:34:13;;;;;;;20.20;8.17;;;7.60;99.90;;;;;;4914464;29;20191;-84
2023/01/29 13:36:43;;;;;;;12.80;8.27;;;7.60;99.90;;;;;;4914697;29;20963;-84
2023/01/29 13:39:20;;;;;;;17.97;9.53;;;7.60;99.90;;;;;;4915364;29;20297;-84
2023/01/29 13:41:49;;;;;;;21.23;9.70;;;7.60;99.90;;;;;;4914340;29;20228;-84
2023/01/29 13:44:23;;;;;;;16.97;10.20;;;7.60;99.90;;;;;;4921611;29;20296;-86
2023/01/29 13:46:54;;;;;;;19.93;10.90;;;7.60;99.90;;;;;;4934137;28;20214;-86